createdAt,value
2023-05-07T00:04:18.678Z,59.69
2023-05-07T00:09:24.487Z,59.99
2023-05-07T00:14:28.426Z,60.06
2023-05-07T00:19:33.159Z,60.33
2023-05-07T00:24:37.510Z,60.69
2023-05-07T00:29:41.491Z,60.99
2023-05-07T00:34:45.710Z,61.35
2023-05-07T00:39:49.388Z,61.40
2023-05-07T00:44:53.322Z,61.65
2023-05-07T00:49:59.021Z,61.87
2023-05-07T00:55:08.665Z,62.01
2023-05-07T01:00:14.814Z,62.03
2023-05-07T01:05:22.521Z,62.18
2023-05-07T01:10:28.630Z,62.15
2023-05-07T01:15:32.498Z,62.26
2023-05-07T01:20:36.734Z,62.44
2023-05-07T01:25:40.446Z,62.58
2023-05-07T01:30:57.719Z,63.01
2023-05-07T01:36:04.880Z,63.49
2023-05-07T01:41:08.965Z,63.88
2023-05-07T01:46:14.243Z,64.32
2023-05-07T01:51:18.797Z,64.64
2023-05-07T01:56:23.754Z,65.01
2023-05-07T02:01:28.586Z,65.33
2023-05-07T02:06:32.553Z,65.61
2023-05-07T02:11:36.661Z,65.75
2023-05-07T02:16:40.572Z,65.98
2023-05-07T02:21:45.653Z,66.31
2023-05-07T02:26:52.582Z,66.61
2023-05-07T02:31:56.767Z,66.81
2023-05-07T02:37:00.457Z,67.03
2023-05-07T02:42:04.670Z,67.21
2023-05-07T02:47:09.915Z,67.56
2023-05-07T02:52:15.564Z,67.74
2023-05-07T02:57:19.341Z,67.89
2023-05-07T03:02:23.154Z,68.13
2023-05-07T03:07:28.097Z,68.29
2023-05-07T03:12:32.823Z,68.27
2023-05-07T03:17:36.485Z,68.39
2023-05-07T03:22:41.795Z,68.61
2023-05-07T03:27:45.440Z,68.54
2023-05-07T03:32:49.844Z,68.26
2023-05-07T03:37:56.782Z,68.18
2023-05-07T03:43:02.237Z,67.95
2023-05-07T03:48:06.608Z,67.90
2023-05-07T03:53:10.383Z,67.75
2023-05-07T03:58:14.637Z,67.45
2023-05-07T04:03:19.851Z,67.10
2023-05-07T04:08:24.760Z,66.69
2023-05-07T04:13:28.461Z,66.25
2023-05-07T04:18:32.626Z,65.73
2023-05-07T04:23:37.661Z,65.39
2023-05-07T04:28:42.906Z,64.67
2023-05-07T04:33:46.488Z,63.88
2023-05-07T04:38:50.689Z,63.10
2023-05-07T04:43:54.689Z,62.60
2023-05-07T04:48:58.752Z,62.09
2023-05-07T04:54:02.813Z,61.43
2023-05-07T04:59:06.992Z,60.89
2023-05-07T05:04:11.776Z,60.28
2023-05-07T05:09:17.432Z,59.58
2023-05-07T05:14:21.351Z,58.78
2023-05-07T05:19:26.183Z,57.48
2023-05-07T05:24:31.961Z,56.63
2023-05-07T05:29:35.715Z,55.20
2023-05-07T05:34:40.760Z,54.40
2023-05-07T05:39:44.665Z,53.38
2023-05-07T05:44:48.881Z,53.21
2023-05-07T05:49:52.766Z,52.53
2023-05-07T05:54:56.758Z,51.91
2023-05-07T06:00:02.538Z,50.97
2023-05-07T06:05:07.421Z,50.36
2023-05-07T06:10:11.732Z,49.88
2023-05-07T06:15:15.771Z,48.81
2023-05-07T06:20:19.940Z,48.35
2023-05-07T06:25:23.685Z,47.38
2023-05-07T06:30:28.177Z,46.51
2023-05-07T06:35:32.798Z,47.51
2023-05-07T06:40:36.878Z,46.44
2023-05-07T06:45:41.981Z,46.10
2023-05-07T06:50:45.932Z,45.69
2023-05-07T06:55:49.650Z,45.44
2023-05-07T07:00:53.791Z,45.19
2023-05-07T07:05:58.485Z,44.18
2023-05-07T07:11:02.368Z,44.15
2023-05-07T07:16:06.572Z,43.11
2023-05-07T07:21:11.391Z,42.81
2023-05-07T07:26:20.031Z,41.60
2023-05-07T07:31:24.024Z,40.88
2023-05-07T07:36:39.044Z,40.51
2023-05-07T07:42:42.832Z,40.81
2023-05-07T07:53:23.872Z,37.91
2023-05-07T08:06:15.313Z,37.32
2023-05-07T08:11:44.593Z,36.44
2023-05-07T08:17:51.157Z,35.42
2023-05-07T08:23:38.935Z,34.77
2023-05-07T08:35:59.622Z,33.28
2023-05-07T08:41:15.300Z,31.91
2023-05-07T08:46:22.334Z,31.59
2023-05-07T08:52:18.029Z,32.70
2023-05-07T08:57:25.676Z,32.14
2023-05-07T09:02:31.251Z,31.95
2023-05-07T09:08:27.529Z,32.17
2023-05-07T09:13:37.376Z,31.23
2023-05-07T09:20:12.521Z,31.31
2023-05-07T09:25:41.353Z,30.56
2023-05-07T09:32:07.584Z,31.49
2023-05-07T09:37:22.184Z,30.05
2023-05-07T09:42:51.943Z,29.80
2023-05-07T09:48:00.014Z,30.39
2023-05-07T09:53:31.470Z,30.14
2023-05-07T09:58:44.773Z,28.00
2023-05-07T10:04:14.620Z,27.21
2023-05-07T10:09:28.371Z,28.94
2023-05-07T10:14:34.229Z,28.33
2023-05-07T10:20:04.677Z,28.58
2023-05-07T10:25:47.237Z,27.00
2023-05-07T10:31:32.442Z,27.85
2023-05-07T10:36:38.479Z,27.68
2023-05-07T10:42:15.778Z,28.51
2023-05-07T10:47:20.229Z,26.88
2023-05-07T10:52:27.959Z,29.17
2023-05-07T10:57:39.375Z,27.20
2023-05-07T11:03:09.394Z,26.32
2023-05-07T11:08:13.551Z,26.30
2023-05-07T11:13:46.087Z,26.09
2023-05-07T11:19:46.594Z,27.30
2023-05-07T11:24:54.531Z,27.16
2023-05-07T11:37:25.943Z,25.88
2023-05-07T11:42:55.790Z,26.27
2023-05-07T11:47:59.635Z,25.67
2023-05-07T11:53:36.358Z,26.10
2023-05-07T11:58:49.492Z,26.07
2023-05-07T12:04:22.359Z,25.85
2023-05-07T12:10:09.124Z,26.43
2023-05-07T12:15:18.552Z,25.74
2023-05-07T12:21:12.618Z,24.88
2023-05-07T12:26:42.206Z,25.38
2023-05-07T12:32:23.087Z,25.22
2023-05-07T12:37:29.123Z,25.25
2023-05-07T12:43:56.325Z,24.14
2023-05-07T12:49:00.558Z,22.99
2023-05-07T12:54:06.439Z,24.65
2023-05-07T12:59:43.154Z,24.19
2023-05-07T13:04:55.193Z,24.52
2023-05-07T13:10:24.796Z,24.75
2023-05-07T13:15:28.578Z,24.36
2023-05-07T13:20:47.406Z,24.04
2023-05-07T13:26:45.741Z,24.53
2023-05-07T13:31:52.775Z,24.64
2023-05-07T13:36:57.964Z,24.41
2023-05-07T13:42:25.456Z,23.91
2023-05-07T13:48:22.242Z,23.51
2023-05-07T13:53:26.975Z,24.07
2023-05-07T13:59:24.317Z,23.97
2023-05-07T14:05:58.421Z,23.97
2023-05-07T14:11:09.267Z,24.49
2023-05-07T14:16:13.283Z,24.52
2023-05-07T14:21:17.438Z,22.86
2023-05-07T14:26:29.347Z,24.21
2023-05-07T14:32:03.980Z,24.44
2023-05-07T14:37:57.815Z,23.16
2023-05-07T14:43:03.423Z,23.43
2023-05-07T14:49:26.666Z,24.08
2023-05-07T14:54:58.772Z,23.72
2023-05-07T15:00:08.184Z,23.93
2023-05-07T15:05:11.955Z,23.50
2023-05-07T15:20:50.106Z,22.13
2023-05-07T15:27:28.083Z,21.93
2023-05-07T15:32:57.324Z,21.25
2023-05-07T15:38:09.956Z,21.53
2023-05-07T15:43:16.037Z,20.91
2023-05-07T15:48:32.979Z,20.86
2023-05-07T15:53:39.319Z,20.65
2023-05-07T15:59:16.693Z,21.81
2023-05-07T16:11:42.083Z,21.60
2023-05-07T16:26:16.938Z,21.69
2023-05-07T16:31:28.804Z,22.34
2023-05-07T16:37:26.685Z,22.60
2023-05-07T16:43:27.718Z,23.17
2023-05-07T16:48:33.439Z,23.76
2023-05-07T16:53:55.355Z,23.83
2023-05-07T16:58:59.612Z,24.42
2023-05-07T17:09:23.037Z,25.41
2023-05-07T17:14:57.145Z,25.88
2023-05-07T17:20:08.241Z,26.30
2023-05-07T17:26:38.531Z,27.06
2023-05-07T17:31:47.114Z,27.83
2023-05-07T17:36:59.723Z,28.40
2023-05-07T17:56:47.774Z,30.78
2023-05-07T18:06:51.283Z,31.95
2023-05-07T18:11:55.002Z,32.79
2023-05-07T18:17:04.768Z,33.65
2023-05-07T18:22:08.578Z,34.35
2023-05-07T18:27:19.093Z,34.50
2023-05-07T18:32:22.843Z,35.13
2023-05-07T18:37:30.214Z,36.06
2023-05-07T18:42:36.272Z,36.97
2023-05-07T18:47:50.138Z,38.15
2023-05-07T18:52:54.276Z,39.60
2023-05-07T19:20:57.197Z,42.81
2023-05-07T19:26:02.340Z,42.94
2023-05-07T19:31:56.636Z,42.79
2023-05-07T19:37:00.799Z,42.83
2023-05-07T19:42:04.922Z,43.25
2023-05-07T20:02:50.666Z,44.65
2023-05-07T20:08:04.918Z,45.58
2023-05-07T20:20:15.360Z,48.40
2023-05-07T20:25:19.436Z,50.42
2023-05-07T20:43:06.282Z,54.57
2023-05-07T21:04:53.914Z,55.68
2023-05-07T21:09:57.900Z,55.35
2023-05-07T21:16:23.517Z,55.35
2023-05-07T21:21:28.379Z,55.11
2023-05-07T21:26:32.857Z,55.21
2023-05-07T21:31:36.896Z,56.12
2023-05-07T21:36:40.937Z,57.30
2023-05-07T21:41:45.429Z,57.74
2023-05-07T21:47:14.638Z,58.66
2023-05-07T21:52:18.980Z,60.28
2023-05-07T21:57:22.712Z,60.69
2023-05-07T22:02:26.561Z,60.38
2023-05-07T22:08:21.925Z,60.63
2023-05-07T22:13:26.711Z,60.66
2023-05-07T22:18:30.660Z,60.58
2023-05-07T22:23:34.581Z,60.72
2023-05-07T22:28:38.592Z,61.27
2023-05-07T22:33:42.589Z,61.47
2023-05-07T22:38:46.362Z,61.70
2023-05-07T22:43:50.299Z,61.89
2023-05-07T22:48:54.433Z,62.15
2023-05-07T22:53:58.145Z,62.76
2023-05-07T22:59:01.767Z,63.33
2023-05-07T23:04:05.916Z,64.04
2023-05-07T23:09:10.995Z,64.61
2023-05-07T23:14:14.880Z,64.61
2023-05-07T23:19:18.434Z,64.90
2023-05-07T23:24:22.039Z,65.47
2023-05-07T23:29:25.797Z,65.99
2023-05-07T23:34:29.482Z,66.29
2023-05-07T23:39:33.259Z,66.16
2023-05-07T23:44:36.882Z,65.94
2023-05-07T23:49:40.784Z,66.31
2023-05-07T23:54:44.988Z,66.87
2023-05-07T23:59:48.632Z,67.01
